sensor_id;sensor_type;location;lat;lon;timestamp;pressure;altitude;pressure_sealevel;temperature;humidity
46534;BME280;32260;52.008;4.752;2023-01-27T00:00:11;102679.13;;;7.58;68.58
46534;BME280;32260;52.008;4.752;2023-01-27T00:02:38;102678.28;;;7.59;68.47
46534;BME280;32260;52.008;4.752;2023-01-27T00:05:05;102674.81;;;7.61;69.13
46534;BME280;32260;52.008;4.752;2023-01-27T00:07:32;102675.69;;;7.62;68.56
46534;BME280;32260;52.008;4.752;2023-01-27T00:09:58;102667.84;;;7.65;68.72
46534;BME280;32260;52.008;4.752;2023-01-27T00:12:25;102670.50;;;7.65;68.54
46534;BME280;32260;52.008;4.752;2023-01-27T00:15:13;102668.78;;;7.69;68.71
46534;BME280;32260;52.008;4.752;2023-01-27T00:17:40;102671.38;;;7.66;68.54
46534;BME280;32260;52.008;4.752;2023-01-27T00:20:07;102665.22;;;7.65;68.15
46534;BME280;32260;52.008;4.752;2023-01-27T00:22:33;102664.34;;;7.66;68.09
46534;BME280;32260;52.008;4.752;2023-01-27T00:25:20;102671.34;;;7.64;68.49
46534;BME280;32260;52.008;4.752;2023-01-27T00:27:46;102668.72;;;7.64;68.46
46534;BME280;32260;52.008;4.752;2023-01-27T00:30:13;102674.88;;;7.66;68.51
46534;BME280;32260;52.008;4.752;2023-01-27T00:32:39;102668.72;;;7.64;68.07
46534;BME280;32260;52.008;4.752;2023-01-27T00:35:25;102670.38;;;7.60;68.23
46534;BME280;32260;52.008;4.752;2023-01-27T00:37:51;102670.38;;;7.59;68.04
46534;BME280;32260;52.008;4.752;2023-01-27T00:40:18;102673.84;;;7.58;67.97
46534;BME280;32260;52.008;4.752;2023-01-27T00:42:44;102667.63;;;7.56;68.04
46534;BME280;32260;52.008;4.752;2023-01-27T00:45:10;102667.63;;;7.56;67.65
46534;BME280;32260;52.008;4.752;2023-01-27T00:47:56;102670.28;;;7.56;67.97
46534;BME280;32260;52.008;4.752;2023-01-27T00:50:24;102663.22;;;7.55;67.94
46534;BME280;32260;52.008;4.752;2023-01-27T00:52:50;102664.03;;;7.52;67.29
46534;BME280;32260;52.008;4.752;2023-01-27T00:55:17;102667.53;;;7.51;67.43
46534;BME280;32260;52.008;4.752;2023-01-27T00:57:44;102668.34;;;7.49;67.28
46534;BME280;32260;52.008;4.752;2023-01-27T01:00:10;102666.63;;;7.49;67.50
46534;BME280;32260;52.008;4.752;2023-01-27T01:02:37;102677.13;;;7.48;67.76
46534;BME280;32260;52.008;4.752;2023-01-27T01:05:03;102675.38;;;7.47;67.04
46534;BME280;32260;52.008;4.752;2023-01-27T01:07:29;102664.81;;;7.47;67.74
46534;BME280;32260;52.008;4.752;2023-01-27T01:09:55;102675.41;;;7.50;67.93
46534;BME280;32260;52.008;4.752;2023-01-27T01:12:21;102675.28;;;7.43;67.05
46534;BME280;32260;52.008;4.752;2023-01-27T01:14:47;102679.75;;;7.48;67.22
46534;BME280;32260;52.008;4.752;2023-01-27T01:17:13;102682.22;;;7.40;67.77
46534;BME280;32260;52.008;4.752;2023-01-27T01:19:40;102681.41;;;7.42;67.12
46534;BME280;32260;52.008;4.752;2023-01-27T01:22:06;102674.25;;;7.35;66.81
46534;BME280;32260;52.008;4.752;2023-01-27T01:24:32;102668.16;;;7.39;67.49
46534;BME280;32260;52.008;4.752;2023-01-27T01:26:58;102680.41;;;7.37;67.18
46534;BME280;32260;52.008;4.752;2023-01-27T01:29:25;102678.56;;;7.33;66.53
46534;BME280;32260;52.008;4.752;2023-01-27T01:31:51;102676.88;;;7.35;66.59
46534;BME280;32260;52.008;4.752;2023-01-27T01:34:17;102668.75;;;7.27;66.72
46534;BME280;32260;52.008;4.752;2023-01-27T01:36:43;102680.28;;;7.33;66.22
46534;BME280;32260;52.008;4.752;2023-01-27T01:39:09;102680.34;;;7.34;66.96
46534;BME280;32260;52.008;4.752;2023-01-27T01:41:36;102696.09;;;7.31;66.45
46534;BME280;32260;52.008;4.752;2023-01-27T01:44:19;102689.19;;;7.36;66.40
46534;BME280;32260;52.008;4.752;2023-01-27T01:46:46;102692.56;;;7.29;66.08
46534;BME280;32260;52.008;4.752;2023-01-27T01:49:12;102698.72;;;7.31;66.64
46534;BME280;32260;52.008;4.752;2023-01-27T01:51:43;102692.59;;;7.32;66.86
46534;BME280;32260;52.008;4.752;2023-01-27T01:54:19;102700.53;;;7.32;66.55
46534;BME280;32260;52.008;4.752;2023-01-27T01:56:57;102689.81;;;7.26;66.89
46534;BME280;32260;52.008;4.752;2023-01-27T01:59:29;102700.47;;;7.29;66.31
46534;BME280;32260;52.008;4.752;2023-01-27T02:02:01;102693.41;;;7.28;66.41
46534;BME280;32260;52.008;4.752;2023-01-27T02:04:35;102700.47;;;7.29;66.83
46534;BME280;32260;52.008;4.752;2023-01-27T02:07:07;102692.56;;;7.29;66.61
46534;BME280;32260;52.008;4.752;2023-01-27T02:09:38;102696.03;;;7.28;66.88
46534;BME280;32260;52.008;4.752;2023-01-27T02:12:04;102701.31;;;7.28;66.83
46534;BME280;32260;52.008;4.752;2023-01-27T02:14:31;102701.22;;;7.25;67.11
46534;BME280;32260;52.008;4.752;2023-01-27T02:16:57;102697.63;;;7.21;66.35
46534;BME280;32260;52.008;4.752;2023-01-27T02:19:34;102700.41;;;7.27;67.21
46534;BME280;32260;52.008;4.752;2023-01-27T02:22:06;102697.72;;;7.24;66.76
46534;BME280;32260;52.008;4.752;2023-01-27T02:24:42;102697.75;;;7.27;66.94
46534;BME280;32260;52.008;4.752;2023-01-27T02:27:10;102701.16;;;7.22;66.88
46534;BME280;32260;52.008;4.752;2023-01-27T02:29:39;102707.34;;;7.24;66.86
46534;BME280;32260;52.008;4.752;2023-01-27T02:32:05;102703.84;;;7.25;66.93
46534;BME280;32260;52.008;4.752;2023-01-27T02:34:34;102703.63;;;7.14;66.84
46534;BME280;32260;52.008;4.752;2023-01-27T02:37:05;102703.81;;;7.22;66.76
46534;BME280;32260;52.008;4.752;2023-01-27T02:39:37;102704.56;;;7.18;66.96
46534;BME280;32260;52.008;4.752;2023-01-27T02:42:07;102700.94;;;7.12;66.32
46534;BME280;32260;52.008;4.752;2023-01-27T02:44:34;102698.34;;;7.14;66.95
46534;BME280;32260;52.008;4.752;2023-01-27T02:47:00;102694.78;;;7.12;66.62
46534;BME280;32260;52.008;4.752;2023-01-27T02:49:26;102695.66;;;7.12;66.83
46534;BME280;32260;52.008;4.752;2023-01-27T02:51:52;102701.66;;;7.05;66.15
46534;BME280;32260;52.008;4.752;2023-01-27T02:54:18;102711.25;;;7.03;66.16
46534;BME280;32260;52.008;4.752;2023-01-27T02:56:44;102705.88;;;7.00;66.62
46534;BME280;32260;52.008;4.752;2023-01-27T02:59:10;102701.59;;;7.04;66.48
46534;BME280;32260;52.008;4.752;2023-01-27T03:01:37;102705.13;;;7.04;66.45
46534;BME280;32260;52.008;4.752;2023-01-27T03:04:03;102704.19;;;7.02;66.36
46534;BME280;32260;52.008;4.752;2023-01-27T03:06:30;102717.38;;;7.02;66.71
46534;BME280;32260;52.008;4.752;2023-01-27T03:08:56;102707.69;;;7.01;66.65
46534;BME280;32260;52.008;4.752;2023-01-27T03:11:22;102712.78;;;6.95;66.57
46534;BME280;32260;52.008;4.752;2023-01-27T03:14:09;102711.06;;;6.95;66.76
46534;BME280;32260;52.008;4.752;2023-01-27T03:16:35;102708.44;;;6.95;66.66
46534;BME280;32260;52.008;4.752;2023-01-27T03:19:21;102711.81;;;6.91;66.47
46534;BME280;32260;52.008;4.752;2023-01-27T03:21:47;102712.75;;;6.92;66.19
46534;BME280;32260;52.008;4.752;2023-01-27T03:24:17;102712.75;;;6.92;66.35
46534;BME280;32260;52.008;4.752;2023-01-27T03:26:44;102721.53;;;6.92;66.64
46534;BME280;32260;52.008;4.752;2023-01-27T03:29:10;102727.69;;;6.93;66.31
46534;BME280;32260;52.008;4.752;2023-01-27T03:31:56;102721.56;;;6.94;66.69
46534;BME280;32260;52.008;4.752;2023-01-27T03:34:22;102728.50;;;6.90;66.23
46534;BME280;32260;52.008;4.752;2023-01-27T03:36:48;102730.34;;;6.93;66.30
46534;BME280;32260;52.008;4.752;2023-01-27T03:39:34;102725.81;;;6.89;66.58
46534;BME280;32260;52.008;4.752;2023-01-27T03:42:20;102736.31;;;6.87;66.22
46534;BME280;32260;52.008;4.752;2023-01-27T03:45:07;102741.56;;;6.86;66.30
46534;BME280;32260;52.008;4.752;2023-01-27T03:47:53;102746.84;;;6.86;66.18
46534;BME280;32260;52.008;4.752;2023-01-27T03:50:19;102745.81;;;6.80;66.64
46534;BME280;32260;52.008;4.752;2023-01-27T03:52:45;102749.31;;;6.79;66.63
46534;BME280;32260;52.008;4.752;2023-01-27T03:55:29;102753.75;;;6.82;66.65
46534;BME280;32260;52.008;4.752;2023-01-27T03:57:55;102751.09;;;6.80;66.69
46534;BME280;32260;52.008;4.752;2023-01-27T04:00:22;102758.88;;;6.76;66.63
46534;BME280;32260;52.008;4.752;2023-01-27T04:02:48;102757.13;;;6.76;66.74
46534;BME280;32260;52.008;4.752;2023-01-27T04:05:34;102763.16;;;6.72;66.81
46534;BME280;32260;52.008;4.752;2023-01-27T04:08:20;102778.78;;;6.66;66.89
46534;BME280;32260;52.008;4.752;2023-01-27T04:10:46;102773.47;;;6.63;66.81
46534;BME280;32260;52.008;4.752;2023-01-27T04:13:32;102773.38;;;6.60;66.47
46534;BME280;32260;52.008;4.752;2023-01-27T04:16:00;102769.78;;;6.58;66.13
46534;BME280;32260;52.008;4.752;2023-01-27T04:18:27;102776.56;;;6.48;66.23
46534;BME280;32260;52.008;4.752;2023-01-27T04:20:53;102782.84;;;6.53;66.38
46534;BME280;32260;52.008;4.752;2023-01-27T04:23:19;102794.25;;;6.54;66.46
46534;BME280;32260;52.008;4.752;2023-01-27T04:25:45;102788.94;;;6.51;66.13
46534;BME280;32260;52.008;4.752;2023-01-27T04:28:12;102800.38;;;6.53;66.67
46534;BME280;32260;52.008;4.752;2023-01-27T04:30:38;102795.94;;;6.52;66.76
46534;BME280;32260;52.008;4.752;2023-01-27T04:33:04;102810.00;;;6.51;66.31
46534;BME280;32260;52.008;4.752;2023-01-27T04:35:31;102800.25;;;6.48;66.40
46534;BME280;32260;52.008;4.752;2023-01-27T04:37:57;102810.81;;;6.48;66.24
46534;BME280;32260;52.008;4.752;2023-01-27T04:40:23;102791.28;;;6.41;66.26
46534;BME280;32260;52.008;4.752;2023-01-27T04:42:51;102795.63;;;6.39;66.15
46534;BME280;32260;52.008;4.752;2023-01-27T04:45:17;102798.13;;;6.35;65.82
46534;BME280;32260;52.008;4.752;2023-01-27T04:47:43;102799.97;;;6.39;65.94
46534;BME280;32260;52.008;4.752;2023-01-27T04:50:10;102793.88;;;6.40;66.27
46534;BME280;32260;52.008;4.752;2023-01-27T04:52:36;102806.16;;;6.39;65.77
46534;BME280;32260;52.008;4.752;2023-01-27T04:55:02;102807.00;;;6.38;65.71
46534;BME280;32260;52.008;4.752;2023-01-27T04:57:28;102803.34;;;6.33;65.47
46534;BME280;32260;52.008;4.752;2023-01-27T04:59:54;102805.97;;;6.33;65.39
46534;BME280;32260;52.008;4.752;2023-01-27T05:02:20;102801.78;;;6.40;65.77
46534;BME280;32260;52.008;4.752;2023-01-27T05:04:46;102803.59;;;6.42;65.80
46534;BME280;32260;52.008;4.752;2023-01-27T05:07:12;102800.91;;;6.39;65.37
46534;BME280;32260;52.008;4.752;2023-01-27T05:09:38;102811.50;;;6.42;65.51
46534;BME280;32260;52.008;4.752;2023-01-27T05:12:04;102813.28;;;6.43;65.97
46534;BME280;32260;52.008;4.752;2023-01-27T05:14:30;102808.06;;;6.45;65.69
46534;BME280;32260;52.008;4.752;2023-01-27T05:16:56;102812.44;;;6.44;65.72
46534;BME280;32260;52.008;4.752;2023-01-27T05:19:22;102812.47;;;6.46;65.58
46534;BME280;32260;52.008;4.752;2023-01-27T05:21:49;102810.72;;;6.46;65.20
46534;BME280;32260;52.008;4.752;2023-01-27T05:24:15;102815.16;;;6.47;65.34
46534;BME280;32260;52.008;4.752;2023-01-27T05:26:41;102813.44;;;6.48;65.71
46534;BME280;32260;52.008;4.752;2023-01-27T05:29:08;102823.91;;;6.46;65.43
46534;BME280;32260;52.008;4.752;2023-01-27T05:31:34;102811.56;;;6.45;64.78
46534;BME280;32260;52.008;4.752;2023-01-27T05:34:01;102818.63;;;6.46;65.21
46534;BME280;32260;52.008;4.752;2023-01-27T05:36:28;102824.03;;;6.51;65.46
46534;BME280;32260;52.008;4.752;2023-01-27T05:38:55;102811.69;;;6.48;64.85
46534;BME280;32260;52.008;4.752;2023-01-27T05:41:21;102826.66;;;6.51;65.05
46534;BME280;32260;52.008;4.752;2023-01-27T05:43:51;102827.56;;;6.52;64.66
46534;BME280;32260;52.008;4.752;2023-01-27T05:46:20;102832.88;;;6.53;64.91
46534;BME280;32260;52.008;4.752;2023-01-27T05:48:51;102838.19;;;6.55;64.58
46534;BME280;32260;52.008;4.752;2023-01-27T05:51:19;102835.53;;;6.53;64.68
46534;BME280;32260;52.008;4.752;2023-01-27T05:53:46;102843.53;;;6.58;65.14
46534;BME280;32260;52.008;4.752;2023-01-27T05:56:15;102840.66;;;6.48;64.25
46534;BME280;32260;52.008;4.752;2023-01-27T05:58:41;102838.88;;;6.49;64.20
46534;BME280;32260;52.008;4.752;2023-01-27T06:01:10;102845.06;;;6.50;64.74
46534;BME280;32260;52.008;4.752;2023-01-27T06:03:37;102834.53;;;6.50;63.99
46534;BME280;32260;52.008;4.752;2023-01-27T06:06:03;102837.22;;;6.51;64.46
46534;BME280;32260;52.008;4.752;2023-01-27T06:08:30;102845.16;;;6.53;64.19
46534;BME280;32260;52.008;4.752;2023-01-27T06:10:56;102845.97;;;6.52;64.32
46534;BME280;32260;52.008;4.752;2023-01-27T06:13:23;102846.06;;;6.53;63.97
46534;BME280;32260;52.008;4.752;2023-01-27T06:15:50;102851.34;;;6.55;64.71
46534;BME280;32260;52.008;4.752;2023-01-27T06:18:17;102848.69;;;6.53;64.29
46534;BME280;32260;52.008;4.752;2023-01-27T06:20:44;102847.56;;;6.45;63.64
46534;BME280;32260;52.008;4.752;2023-01-27T06:23:12;102848.63;;;6.52;63.99
46534;BME280;32260;52.008;4.752;2023-01-27T06:25:42;102852.19;;;6.54;63.95
46534;BME280;32260;52.008;4.752;2023-01-27T06:28:09;102854.00;;;6.55;64.21
46534;BME280;32260;52.008;4.752;2023-01-27T06:30:37;102847.75;;;6.51;64.19
46534;BME280;32260;52.008;4.752;2023-01-27T06:33:04;102851.94;;;6.44;63.11
46534;BME280;32260;52.008;4.752;2023-01-27T06:35:32;102856.47;;;6.50;63.68
46534;BME280;32260;52.008;4.752;2023-01-27T06:37:59;102851.22;;;6.50;63.59
46534;BME280;32260;52.008;4.752;2023-01-27T06:40:26;102859.16;;;6.52;63.98
46534;BME280;32260;52.008;4.752;2023-01-27T06:42:52;102860.06;;;6.52;64.07
46534;BME280;32260;52.008;4.752;2023-01-27T06:45:18;102865.38;;;6.54;63.72
46534;BME280;32260;52.008;4.752;2023-01-27T06:47:44;102868.84;;;6.53;63.54
46534;BME280;32260;52.008;4.752;2023-01-27T06:50:11;102869.63;;;6.48;63.13
46534;BME280;32260;52.008;4.752;2023-01-27T06:52:37;102874.06;;;6.51;63.39
46534;BME280;32260;52.008;4.752;2023-01-27T06:55:04;102873.00;;;6.44;62.60
46534;BME280;32260;52.008;4.752;2023-01-27T06:57:31;102878.16;;;6.41;62.07
46534;BME280;32260;52.008;4.752;2023-01-27T06:59:57;102874.50;;;6.36;61.68
46534;BME280;32260;52.008;4.752;2023-01-27T07:02:23;102880.66;;;6.37;62.30
46534;BME280;32260;52.008;4.752;2023-01-27T07:04:49;102871.72;;;6.31;61.23
46534;BME280;32260;52.008;4.752;2023-01-27T07:07:15;102877.72;;;6.26;60.75
46534;BME280;32260;52.008;4.752;2023-01-27T07:09:41;102870.75;;;6.28;61.41
46534;BME280;32260;52.008;4.752;2023-01-27T07:12:07;102869.03;;;6.28;61.73
46534;BME280;32260;52.008;4.752;2023-01-27T07:14:33;102873.47;;;6.31;61.42
46534;BME280;32260;52.008;4.752;2023-01-27T07:16:59;102874.50;;;6.36;62.24
46534;BME280;32260;52.008;4.752;2023-01-27T07:19:26;102878.81;;;6.34;62.05
46534;BME280;32260;52.008;4.752;2023-01-27T07:21:52;102881.38;;;6.31;61.96
46534;BME280;32260;52.008;4.752;2023-01-27T07:24:18;102885.84;;;6.34;61.89
46534;BME280;32260;52.008;4.752;2023-01-27T07:26:44;102872.53;;;6.29;62.12
46534;BME280;32260;52.008;4.752;2023-01-27T07:29:12;102874.31;;;6.30;62.46
46534;BME280;32260;52.008;4.752;2023-01-27T07:31:39;102880.47;;;6.30;62.49
46534;BME280;32260;52.008;4.752;2023-01-27T07:34:05;102875.28;;;6.32;62.56
46534;BME280;32260;52.008;4.752;2023-01-27T07:36:31;102880.34;;;6.26;61.96
46534;BME280;32260;52.008;4.752;2023-01-27T07:38:57;102882.19;;;6.28;62.41
46534;BME280;32260;52.008;4.752;2023-01-27T07:41:23;102893.50;;;6.26;62.16
46534;BME280;32260;52.008;4.752;2023-01-27T07:43:50;102903.84;;;6.20;62.29
46534;BME280;32260;52.008;4.752;2023-01-27T07:46:16;102914.38;;;6.20;62.47
46534;BME280;32260;52.008;4.752;2023-01-27T07:48:42;102917.81;;;6.17;62.32
46534;BME280;32260;52.008;4.752;2023-01-27T07:51:12;102917.00;;;6.20;62.45
46534;BME280;32260;52.008;4.752;2023-01-27T07:53:40;102926.59;;;6.18;62.31
46534;BME280;32260;52.008;4.752;2023-01-27T07:56:06;102924.91;;;6.20;62.67
46534;BME280;32260;52.008;4.752;2023-01-27T07:58:42;102931.97;;;6.21;62.66
46534;BME280;32260;52.008;4.752;2023-01-27T08:01:10;102923.19;;;6.22;62.62
46534;BME280;32260;52.008;4.752;2023-01-27T08:03:37;102925.78;;;6.20;62.71
46534;BME280;32260;52.008;4.752;2023-01-27T08:06:08;102928.41;;;6.20;62.07
46534;BME280;32260;52.008;4.752;2023-01-27T08:08:35;102938.16;;;6.23;62.29
46534;BME280;32260;52.008;4.752;2023-01-27T08:11:04;102936.47;;;6.25;62.07
46534;BME280;32260;52.008;4.752;2023-01-27T08:13:33;102935.63;;;6.26;61.87
46534;BME280;32260;52.008;4.752;2023-01-27T08:16:00;102935.81;;;6.32;62.18
46534;BME280;32260;52.008;4.752;2023-01-27T08:18:27;102935.03;;;6.35;61.96
46534;BME280;32260;52.008;4.752;2023-01-27T08:20:54;102934.13;;;6.34;62.19
46534;BME280;32260;52.008;4.752;2023-01-27T08:23:21;102930.75;;;6.38;62.37
46534;BME280;32260;52.008;4.752;2023-01-27T08:25:50;102941.47;;;6.44;62.55
46534;BME280;32260;52.008;4.752;2023-01-27T08:28:17;102943.38;;;6.50;62.17
46534;BME280;32260;52.008;4.752;2023-01-27T08:30:43;102944.22;;;6.49;61.79
46534;BME280;32260;52.008;4.752;2023-01-27T08:33:10;102943.44;;;6.52;62.18
46534;BME280;32260;52.008;4.752;2023-01-27T08:35:36;102941.09;;;6.61;61.90
46534;BME280;32260;52.008;4.752;2023-01-27T08:38:04;102938.53;;;6.64;61.71
46534;BME280;32260;52.008;4.752;2023-01-27T08:40:30;102941.25;;;6.66;62.01
46534;BME280;32260;52.008;4.752;2023-01-27T08:42:56;102938.66;;;6.67;61.90
46534;BME280;32260;52.008;4.752;2023-01-27T08:45:23;102942.13;;;6.66;61.56
46534;BME280;32260;52.008;4.752;2023-01-27T08:47:49;102943.00;;;6.67;61.25
46534;BME280;32260;52.008;4.752;2023-01-27T08:50:15;102949.25;;;6.70;61.55
46534;BME280;32260;52.008;4.752;2023-01-27T08:52:41;102942.41;;;6.75;61.98
46534;BME280;32260;52.008;4.752;2023-01-27T08:55:07;102937.22;;;6.78;61.19
46534;BME280;32260;52.008;4.752;2023-01-27T08:57:33;102939.09;;;6.83;61.36
46534;BME280;32260;52.008;4.752;2023-01-27T08:59:59;102954.16;;;6.87;61.46
46534;BME280;32260;52.008;4.752;2023-01-27T09:02:25;102955.06;;;6.89;61.10
46534;BME280;32260;52.008;4.752;2023-01-27T09:04:52;102949.81;;;6.89;60.28
46534;BME280;32260;52.008;4.752;2023-01-27T09:07:18;102952.50;;;6.90;59.97
46534;BME280;32260;52.008;4.752;2023-01-27T09:09:46;102951.53;;;6.87;59.83
46534;BME280;32260;52.008;4.752;2023-01-27T09:12:13;102949.44;;;6.76;59.86
46534;BME280;32260;52.008;4.752;2023-01-27T09:14:39;102948.19;;;6.63;59.87
46534;BME280;32260;52.008;4.752;2023-01-27T09:17:05;102952.38;;;6.57;60.06
46534;BME280;32260;52.008;4.752;2023-01-27T09:19:31;102955.69;;;6.50;60.06
46534;BME280;32260;52.008;4.752;2023-01-27T09:21:58;102959.94;;;6.46;60.08
46534;BME280;32260;52.008;4.752;2023-01-27T09:24:24;102954.69;;;6.46;60.75
46534;BME280;32260;52.008;4.752;2023-01-27T09:26:50;102954.72;;;6.47;60.70
46534;BME280;32260;52.008;4.752;2023-01-27T09:29:17;102962.00;;;6.56;60.15
46534;BME280;32260;52.008;4.752;2023-01-27T09:31:43;102954.91;;;6.54;59.97
46534;BME280;32260;52.008;4.752;2023-01-27T09:34:09;102957.53;;;6.54;60.51
46534;BME280;32260;52.008;4.752;2023-01-27T09:36:40;102968.00;;;6.51;60.54
46534;BME280;32260;52.008;4.752;2023-01-27T09:39:08;102957.34;;;6.47;60.35
46534;BME280;32260;52.008;4.752;2023-01-27T09:47:49;102958.50;;;6.56;60.56
46534;BME280;32260;52.008;4.752;2023-01-27T09:50:45;102955.22;;;6.63;60.56
46534;BME280;32260;52.008;4.752;2023-01-27T09:56:48;102949.19;;;6.67;60.36
46534;BME280;32260;52.008;4.752;2023-01-27T09:59:24;102946.81;;;6.76;60.50
46534;BME280;32260;52.008;4.752;2023-01-27T10:02:07;102949.41;;;6.75;59.93
46534;BME280;32260;52.008;4.752;2023-01-27T10:04:50;102954.91;;;6.83;60.15
46534;BME280;32260;52.008;4.752;2023-01-27T10:10:48;102953.63;;;7.00;59.55
46534;BME280;32260;52.008;4.752;2023-01-27T10:13:13;102958.03;;;7.00;59.66
46534;BME280;32260;52.008;4.752;2023-01-27T10:16:05;102958.25;;;7.07;60.02
46534;BME280;32260;52.008;4.752;2023-01-27T10:21:40;102969.63;;;7.06;59.28
46534;BME280;32260;52.008;4.752;2023-01-27T10:27:20;102970.38;;;7.33;59.78
46534;BME280;32260;52.008;4.752;2023-01-27T10:29:55;102960.88;;;7.38;59.26
46534;BME280;32260;52.008;4.752;2023-01-27T10:32:27;102964.53;;;7.43;59.64
46534;BME280;32260;52.008;4.752;2023-01-27T10:35:07;102965.66;;;7.53;58.81
46534;BME280;32260;52.008;4.752;2023-01-27T10:40:39;102973.13;;;7.69;59.26
46534;BME280;32260;52.008;4.752;2023-01-27T10:43:13;102962.53;;;7.68;58.49
46534;BME280;32260;52.008;4.752;2023-01-27T10:45:52;102965.53;;;7.48;58.06
46534;BME280;32260;52.008;4.752;2023-01-27T10:48:45;102963.78;;;7.49;58.30
46534;BME280;32260;52.008;4.752;2023-01-27T10:51:34;102967.34;;;7.51;59.22
46534;BME280;32260;52.008;4.752;2023-01-27T10:54:11;102969.06;;;7.49;58.82
46534;BME280;32260;52.008;4.752;2023-01-27T10:56:43;102965.50;;;7.47;59.59
46534;BME280;32260;52.008;4.752;2023-01-27T10:59:18;102967.59;;;7.60;59.36
46534;BME280;32260;52.008;4.752;2023-01-27T11:04:48;102969.34;;;7.59;59.33
46534;BME280;32260;52.008;4.752;2023-01-27T11:07:19;102969.56;;;7.69;59.74
46534;BME280;32260;52.008;4.752;2023-01-27T11:12:35;102955.13;;;7.88;59.01
46534;BME280;32260;52.008;4.752;2023-01-27T11:18:30;102949.38;;;8.04;59.24
46534;BME280;32260;52.008;4.752;2023-01-27T11:20:48;102945.06;;;8.08;58.75
46534;BME280;32260;52.008;4.752;2023-01-27T11:23:32;102947.88;;;8.16;58.47
46534;BME280;32260;52.008;4.752;2023-01-27T11:27:09;102948.81;;;8.18;59.00
46534;BME280;32260;52.008;4.752;2023-01-27T11:29:30;102954.09;;;8.18;58.58
46534;BME280;32260;52.008;4.752;2023-01-27T11:32:27;102944.44;;;8.20;59.20
46534;BME280;32260;52.008;4.752;2023-01-27T11:35:16;102944.44;;;8.20;58.53
46534;BME280;32260;52.008;4.752;2023-01-27T11:37:42;102946.28;;;8.22;58.88
46534;BME280;32260;52.008;4.752;2023-01-27T11:40:30;102948.03;;;8.22;58.97
46534;BME280;32260;52.008;4.752;2023-01-27T11:42:57;102937.25;;;8.13;59.08
46534;BME280;32260;52.008;4.752;2023-01-27T11:45:25;102941.72;;;8.15;59.66
46534;BME280;32260;52.008;4.752;2023-01-27T11:47:56;102945.22;;;8.16;58.58
46534;BME280;32260;52.008;4.752;2023-01-27T11:50:27;102938.28;;;8.19;59.50
46534;BME280;32260;52.008;4.752;2023-01-27T11:53:02;102935.63;;;8.19;59.43
46534;BME280;32260;52.008;4.752;2023-01-27T11:55:38;102936.31;;;8.10;59.28
46534;BME280;32260;52.008;4.752;2023-01-27T11:58:12;102930.97;;;8.07;59.46
46534;BME280;32260;52.008;4.752;2023-01-27T12:00:44;102931.72;;;8.03;60.00
46534;BME280;32260;52.008;4.752;2023-01-27T12:03:18;102927.31;;;8.02;59.90
46534;BME280;32260;52.008;4.752;2023-01-27T12:05:56;102926.47;;;8.03;59.32
46534;BME280;32260;52.008;4.752;2023-01-27T12:08:43;102930.03;;;8.05;59.59
46534;BME280;32260;52.008;4.752;2023-01-27T12:13:57;102915.06;;;8.06;59.79
46534;BME280;32260;52.008;4.752;2023-01-27T12:16:56;102916.88;;;8.07;58.68
46534;BME280;32260;52.008;4.752;2023-01-27T12:19:30;102918.78;;;8.13;58.82
46534;BME280;32260;52.008;4.752;2023-01-27T12:22:02;102919.75;;;8.16;59.36
46534;BME280;32260;52.008;4.752;2023-01-27T12:24:33;102905.78;;;8.22;58.75
46534;BME280;32260;52.008;4.752;2023-01-27T12:27:02;102917.88;;;8.14;59.32
46534;BME280;32260;52.008;4.752;2023-01-27T12:29:40;102919.69;;;8.15;58.78
46534;BME280;32260;52.008;4.752;2023-01-27T12:35:24;102923.13;;;8.10;59.50
46534;BME280;32260;52.008;4.752;2023-01-27T12:38:05;102917.88;;;8.14;59.02
46534;BME280;32260;52.008;4.752;2023-01-27T12:40:33;102916.03;;;8.09;59.16
46534;BME280;32260;52.008;4.752;2023-01-27T12:48:51;102911.75;;;8.15;58.39
46534;BME280;32260;52.008;4.752;2023-01-27T12:51:22;102903.00;;;8.16;59.43
46534;BME280;32260;52.008;4.752;2023-01-27T12:53:50;102903.94;;;8.18;59.24
46534;BME280;32260;52.008;4.752;2023-01-27T12:56:19;102909.22;;;8.18;58.93
46534;BME280;32260;52.008;4.752;2023-01-27T12:58:56;102903.09;;;8.20;58.60
46534;BME280;32260;52.008;4.752;2023-01-27T13:04:16;102902.19;;;8.20;58.69
46534;BME280;32260;52.008;4.752;2023-01-27T13:06:47;102908.94;;;8.07;58.37
46534;BME280;32260;52.008;4.752;2023-01-27T13:09:26;102907.25;;;8.09;58.59
46534;BME280;32260;52.008;4.752;2023-01-27T13:11:54;102900.03;;;8.02;58.60
46534;BME280;32260;52.008;4.752;2023-01-27T13:14:22;102905.34;;;8.03;58.65
46534;BME280;32260;52.008;4.752;2023-01-27T13:16:54;102902.72;;;8.05;58.86
46534;BME280;32260;52.008;4.752;2023-01-27T13:19:31;102895.16;;;8.19;58.61
46534;BME280;32260;52.008;4.752;2023-01-27T13:21:59;102902.00;;;8.10;59.33
46534;BME280;32260;52.008;4.752;2023-01-27T13:24:37;102888.84;;;8.14;59.11
46534;BME280;32260;52.008;4.752;2023-01-27T13:27:11;102890.56;;;8.12;58.97
46534;BME280;32260;52.008;4.752;2023-01-27T13:29:40;102896.75;;;8.14;59.06
46534;BME280;32260;52.008;4.752;2023-01-27T13:32:27;102892.66;;;8.25;58.53
46534;BME280;32260;52.008;4.752;2023-01-27T13:35:20;102891.84;;;8.29;58.70
46534;BME280;32260;52.008;4.752;2023-01-27T13:40:47;102893.38;;;8.18;58.59
46534;BME280;32260;52.008;4.752;2023-01-27T13:48:33;102896.91;;;8.20;59.89
46534;BME280;32260;52.008;4.752;2023-01-27T13:51:02;102898.84;;;8.27;58.99
46534;BME280;32260;52.008;4.752;2023-01-27T13:53:29;102904.69;;;8.14;59.12
46534;BME280;32260;52.008;4.752;2023-01-27T14:01:42;102914.25;;;8.08;59.80
46534;BME280;32260;52.008;4.752;2023-01-27T14:18:33;102912.19;;;7.95;59.52
46534;BME280;32260;52.008;4.752;2023-01-27T14:21:40;102906.78;;;7.89;59.96
46534;BME280;32260;52.008;4.752;2023-01-27T14:26:42;102913.63;;;7.82;60.15
46534;BME280;32260;52.008;4.752;2023-01-27T14:32:26;102928.47;;;7.77;60.43
46534;BME280;32260;52.008;4.752;2023-01-27T14:40:57;102934.06;;;7.56;60.40